sensor_id;sensor_type;location;lat;lon;timestamp;pressure;altitude;pressure_sealevel;temperature;humidity
63347;BME280;49472;49.880;8.650;2023-01-29T00:02:09;101403.41;;;10.14;nan
63347;BME280;49472;49.880;8.650;2023-01-29T00:04:34;101402.34;;;9.83;nan
63347;BME280;49472;49.880;8.650;2023-01-29T00:07:00;101400.25;;;10.09;nan
63347;BME280;49472;49.880;8.650;2023-01-29T00:09:26;101401.91;;;9.92;nan
63347;BME280;49472;49.880;8.650;2023-01-29T00:11:52;101397.53;;;9.77;nan
63347;BME280;49472;49.880;8.650;2023-01-29T00:14:18;101398.41;;;9.76;nan
63347;BME280;49472;49.880;8.650;2023-01-29T00:16:43;101400.09;;;9.58;nan
63347;BME280;49472;49.880;8.650;2023-01-29T00:19:08;101402.56;;;9.42;nan
63347;BME280;49472;49.880;8.650;2023-01-29T00:21:34;101404.81;;;9.48;nan
63347;BME280;49472;49.880;8.650;2023-01-29T00:23:59;101403.47;;;9.59;nan
63347;BME280;49472;49.880;8.650;2023-01-29T00:26:25;101411.69;;;9.65;nan
63347;BME280;49472;49.880;8.650;2023-01-29T00:28:51;101419.16;;;9.70;nan
63347;BME280;49472;49.880;8.650;2023-01-29T00:31:21;101417.03;;;9.78;nan
63347;BME280;49472;49.880;8.650;2023-01-29T00:33:47;101413.94;;;9.71;nan
63347;BME280;49472;49.880;8.650;2023-01-29T00:36:14;101419.28;;;9.67;nan
63347;BME280;49472;49.880;8.650;2023-01-29T00:38:41;101417.63;;;9.66;nan
63347;BME280;49472;49.880;8.650;2023-01-29T00:41:07;101424.41;;;9.67;nan
63347;BME280;49472;49.880;8.650;2023-01-29T00:43:52;101424.41;;;9.67;nan
63347;BME280;49472;49.880;8.650;2023-01-29T00:46:36;101431.56;;;9.59;nan
63347;BME280;49472;49.880;8.650;2023-01-29T00:49:01;101420.81;;;9.52;nan
63347;BME280;49472;49.880;8.650;2023-01-29T00:51:26;101428.78;;;9.27;nan
63347;BME280;49472;49.880;8.650;2023-01-29T00:53:52;101434.41;;;9.33;nan
63347;BME280;49472;49.880;8.650;2023-01-29T00:56:18;101428.03;;;9.61;nan
63347;BME280;49472;49.880;8.650;2023-01-29T00:58:44;101418.13;;;9.55;nan
63347;BME280;49472;49.880;8.650;2023-01-29T01:01:09;101416.84;;;9.64;nan
63347;BME280;49472;49.880;8.650;2023-01-29T01:03:34;101414.25;;;9.65;nan
63347;BME280;49472;49.880;8.650;2023-01-29T01:06:08;101416.22;;;9.77;nan
63347;BME280;49472;49.880;8.650;2023-01-29T01:08:34;101413.56;;;9.62;nan
63347;BME280;49472;49.880;8.650;2023-01-29T01:11:18;101402.69;;;9.39;nan
63347;BME280;49472;49.880;8.650;2023-01-29T01:13:44;101406.94;;;9.57;nan
63347;BME280;49472;49.880;8.650;2023-01-29T01:16:14;101410.72;;;9.49;nan
63347;BME280;49472;49.880;8.650;2023-01-29T01:18:40;101409.75;;;9.70;nan
63347;BME280;49472;49.880;8.650;2023-01-29T01:21:05;101406.13;;;9.57;nan
63347;BME280;49472;49.880;8.650;2023-01-29T01:23:30;101409.03;;;9.49;nan
63347;BME280;49472;49.880;8.650;2023-01-29T01:25:56;101409.28;;;9.62;nan
63347;BME280;49472;49.880;8.650;2023-01-29T01:28:21;101408.63;;;9.76;nan
63347;BME280;49472;49.880;8.650;2023-01-29T01:30:46;101399.94;;;9.61;nan
63347;BME280;49472;49.880;8.650;2023-01-29T01:33:12;101401.50;;;9.83;nan
63347;BME280;49472;49.880;8.650;2023-01-29T01:35:38;101404.19;;;9.62;nan
63347;BME280;49472;49.880;8.650;2023-01-29T01:38:03;101398.06;;;10.01;nan
63347;BME280;49472;49.880;8.650;2023-01-29T01:40:29;101397.97;;;9.85;nan
63347;BME280;49472;49.880;8.650;2023-01-29T01:42:56;101395.69;;;9.79;nan
63347;BME280;49472;49.880;8.650;2023-01-29T01:45:27;101392.38;;;9.60;nan
63347;BME280;49472;49.880;8.650;2023-01-29T01:53:17;101389.47;;;9.67;nan
63347;BME280;49472;49.880;8.650;2023-01-29T01:55:57;101378.03;;;9.57;nan
63347;BME280;49472;49.880;8.650;2023-01-29T01:58:33;101374.00;;;9.70;nan
63347;BME280;49472;49.880;8.650;2023-01-29T02:01:05;101367.91;;;9.73;nan
63347;BME280;49472;49.880;8.650;2023-01-29T02:03:34;101358.50;;;9.20;nan
63347;BME280;49472;49.880;8.650;2023-01-29T02:06:21;101357.09;;;9.31;nan
63347;BME280;49472;49.880;8.650;2023-01-29T02:09:10;101357.69;;;9.73;nan
63347;BME280;49472;49.880;8.650;2023-01-29T02:12:16;101353.34;;;9.39;nan
63347;BME280;49472;49.880;8.650;2023-01-29T02:14:42;101352.78;;;9.15;nan
63347;BME280;49472;49.880;8.650;2023-01-29T02:17:11;101359.03;;;9.07;nan
63347;BME280;49472;49.880;8.650;2023-01-29T02:34:21;101350.06;;;9.18;nan
63347;BME280;49472;49.880;8.650;2023-01-29T02:37:02;101352.97;;;9.29;nan
63347;BME280;49472;49.880;8.650;2023-01-29T02:39:36;101345.47;;;9.43;nan
63347;BME280;49472;49.880;8.650;2023-01-29T02:44:41;101356.44;;;9.45;nan
63347;BME280;49472;49.880;8.650;2023-01-29T02:50:11;101360.44;;;9.51;nan
63347;BME280;49472;49.880;8.650;2023-01-29T02:57:36;101366.09;;;9.57;nan
63347;BME280;49472;49.880;8.650;2023-01-29T03:00:09;101369.31;;;9.61;nan
63347;BME280;49472;49.880;8.650;2023-01-29T03:03:16;101370.66;;;9.51;nan
63347;BME280;49472;49.880;8.650;2023-01-29T03:05:58;101383.56;;;9.48;nan
63347;BME280;49472;49.880;8.650;2023-01-29T03:08:31;101388.59;;;9.49;nan
63347;BME280;49472;49.880;8.650;2023-01-29T03:11:08;101396.94;;;9.53;nan
63347;BME280;49472;49.880;8.650;2023-01-29T03:14:05;101396.81;;;9.18;nan
63347;BME280;49472;49.880;8.650;2023-01-29T03:16:50;101390.97;;;9.35;nan
63347;BME280;49472;49.880;8.650;2023-01-29T03:21:55;101388.31;;;9.55;nan
63347;BME280;49472;49.880;8.650;2023-01-29T03:24:44;101384.38;;;9.67;nan
63347;BME280;49472;49.880;8.650;2023-01-29T03:27:38;101370.84;;;10.35;nan
63347;BME280;49472;49.880;8.650;2023-01-29T03:30:26;101376.38;;;9.56;nan
63347;BME280;49472;49.880;8.650;2023-01-29T03:33:13;101378.41;;;9.49;nan
63347;BME280;49472;49.880;8.650;2023-01-29T03:35:49;101385.03;;;9.34;nan
63347;BME280;49472;49.880;8.650;2023-01-29T03:38:17;101392.38;;;9.60;nan
63347;BME280;49472;49.880;8.650;2023-01-29T03:40:56;101396.06;;;9.35;nan
63347;BME280;49472;49.880;8.650;2023-01-29T03:43:47;101393.84;;;9.46;nan
63347;BME280;49472;49.880;8.650;2023-01-29T03:46:37;101393.75;;;9.67;nan
63347;BME280;49472;49.880;8.650;2023-01-29T03:51:59;101399.09;;;9.80;nan
63347;BME280;49472;49.880;8.650;2023-01-29T04:00:00;101391.66;;;9.75;nan
63347;BME280;49472;49.880;8.650;2023-01-29T04:02:37;101387.88;;;9.65;nan
63347;BME280;49472;49.880;8.650;2023-01-29T04:05:08;101378.06;;;9.74;nan
63347;BME280;49472;49.880;8.650;2023-01-29T04:07:37;101373.38;;;9.65;nan
63347;BME280;49472;49.880;8.650;2023-01-29T04:10:09;101378.50;;;9.10;nan
63347;BME280;49472;49.880;8.650;2023-01-29T04:12:49;101380.25;;;9.46;nan
63347;BME280;49472;49.880;8.650;2023-01-29T04:15:17;101379.53;;;9.61;nan
63347;BME280;49472;49.880;8.650;2023-01-29T04:17:51;101388.91;;;9.61;nan
63347;BME280;49472;49.880;8.650;2023-01-29T04:20:18;101391.78;;;9.54;nan
63347;BME280;49472;49.880;8.650;2023-01-29T04:22:47;101380.38;;;9.62;nan
63347;BME280;49472;49.880;8.650;2023-01-29T04:25:20;101372.09;;;9.56;nan
63347;BME280;49472;49.880;8.650;2023-01-29T04:33:10;101349.00;;;9.41;nan
63347;BME280;49472;49.880;8.650;2023-01-29T04:41:36;101342.09;;;9.06;nan
63347;BME280;49472;49.880;8.650;2023-01-29T04:44:25;101344.81;;;9.40;nan
63347;BME280;49472;49.880;8.650;2023-01-29T04:52:35;101343.22;;;9.37;nan
63347;BME280;49472;49.880;8.650;2023-01-29T04:58:50;101351.66;;;9.39;nan
63347;BME280;49472;49.880;8.650;2023-01-29T05:01:18;101357.59;;;9.21;nan
63347;BME280;49472;49.880;8.650;2023-01-29T05:03:48;101358.97;;;8.71;nan
63347;BME280;49472;49.880;8.650;2023-01-29T05:06:15;101368.16;;;8.94;nan
63347;BME280;49472;49.880;8.650;2023-01-29T05:08:42;101369.94;;;8.73;nan
63347;BME280;49472;49.880;8.650;2023-01-29T05:11:08;101376.13;;;8.26;nan
63347;BME280;49472;49.880;8.650;2023-01-29T05:13:36;101382.41;;;8.79;nan
63347;BME280;49472;49.880;8.650;2023-01-29T05:16:07;101376.84;;;9.09;nan
63347;BME280;49472;49.880;8.650;2023-01-29T05:18:34;101383.34;;;9.16;nan
63347;BME280;49472;49.880;8.650;2023-01-29T05:21:03;101391.94;;;9.32;nan
63347;BME280;49472;49.880;8.650;2023-01-29T05:23:29;101380.50;;;9.59;nan
63347;BME280;49472;49.880;8.650;2023-01-29T05:25:55;101371.72;;;9.47;nan
63347;BME280;49472;49.880;8.650;2023-01-29T05:28:21;101362.06;;;9.34;nan
63347;BME280;49472;49.880;8.650;2023-01-29T05:30:48;101363.97;;;9.48;nan
63347;BME280;49472;49.880;8.650;2023-01-29T05:33:22;101355.63;;;9.45;nan
63347;BME280;49472;49.880;8.650;2023-01-29T05:35:48;101354.47;;;9.33;nan
63347;BME280;49472;49.880;8.650;2023-01-29T05:38:15;101353.03;;;9.27;nan
63347;BME280;49472;49.880;8.650;2023-01-29T05:40:40;101345.38;;;9.27;nan
63347;BME280;49472;49.880;8.650;2023-01-29T05:43:13;101352.16;;;9.46;nan
63347;BME280;49472;49.880;8.650;2023-01-29T05:45:39;101360.28;;;9.18;nan
63347;BME280;49472;49.880;8.650;2023-01-29T05:48:04;101363.28;;;9.45;nan
63347;BME280;49472;49.880;8.650;2023-01-29T05:50:30;101367.84;;;9.38;nan
63347;BME280;49472;49.880;8.650;2023-01-29T05:52:59;101357.72;;;9.37;nan
63347;BME280;49472;49.880;8.650;2023-01-29T05:55:26;101357.41;;;9.43;nan
63347;BME280;49472;49.880;8.650;2023-01-29T05:57:53;101355.03;;;9.21;nan
63347;BME280;49472;49.880;8.650;2023-01-29T06:00:18;101355.38;;;9.32;nan
63347;BME280;49472;49.880;8.650;2023-01-29T06:02:44;101357.41;;;9.06;nan
63347;BME280;49472;49.880;8.650;2023-01-29T06:05:10;101361.69;;;9.06;nan
63347;BME280;49472;49.880;8.650;2023-01-29T06:07:35;101366.00;;;9.23;nan
63347;BME280;49472;49.880;8.650;2023-01-29T06:10:01;101360.53;;;9.30;nan
63347;BME280;49472;49.880;8.650;2023-01-29T06:12:27;101370.91;;;8.89;nan
63347;BME280;49472;49.880;8.650;2023-01-29T06:14:52;101363.53;;;9.02;nan
63347;BME280;49472;49.880;8.650;2023-01-29T06:17:17;101356.41;;;8.90;nan
63347;BME280;49472;49.880;8.650;2023-01-29T06:19:43;101344.44;;;9.11;nan
63347;BME280;49472;49.880;8.650;2023-01-29T06:22:08;101347.00;;;9.11;nan
63347;BME280;49472;49.880;8.650;2023-01-29T06:24:33;101348.22;;;9.02;nan
63347;BME280;49472;49.880;8.650;2023-01-29T06:26:59;101352.56;;;8.81;nan
63347;BME280;49472;49.880;8.650;2023-01-29T06:29:24;101354.16;;;8.44;nan
63347;BME280;49472;49.880;8.650;2023-01-29T06:31:49;101360.19;;;8.21;nan
63347;BME280;49472;49.880;8.650;2023-01-29T06:34:14;101364.66;;;8.16;nan
63347;BME280;49472;49.880;8.650;2023-01-29T06:36:40;101364.66;;;8.16;nan
63347;BME280;49472;49.880;8.650;2023-01-29T06:39:07;101365.13;;;8.46;nan
63347;BME280;49472;49.880;8.650;2023-01-29T06:41:33;101360.81;;;8.67;nan
63347;BME280;49472;49.880;8.650;2023-01-29T06:43:58;101359.84;;;8.51;nan
63347;BME280;49472;49.880;8.650;2023-01-29T06:46:23;101348.97;;;9.04;nan
63347;BME280;49472;49.880;8.650;2023-01-29T06:48:49;101345.22;;;9.30;nan
63347;BME280;49472;49.880;8.650;2023-01-29T06:51:14;101342.09;;;8.87;nan
63347;BME280;49472;49.880;8.650;2023-01-29T06:53:39;101339.38;;;8.53;nan
63347;BME280;49472;49.880;8.650;2023-01-29T06:56:05;101346.50;;;8.44;nan
63347;BME280;49472;49.880;8.650;2023-01-29T06:58:31;101352.28;;;8.68;nan
63347;BME280;49472;49.880;8.650;2023-01-29T07:01:07;101356.66;;;8.85;nan
63347;BME280;49472;49.880;8.650;2023-01-29T07:03:33;101357.22;;;8.53;nan
63347;BME280;49472;49.880;8.650;2023-01-29T07:05:58;101359.56;;;8.16;nan
63347;BME280;49472;49.880;8.650;2023-01-29T07:08:24;101362.06;;;8.18;nan
63347;BME280;49472;49.880;8.650;2023-01-29T07:10:49;101365.88;;;8.48;nan
63347;BME280;49472;49.880;8.650;2023-01-29T07:13:15;101366.56;;;8.52;nan
63347;BME280;49472;49.880;8.650;2023-01-29T07:15:40;101364.66;;;8.16;nan
63347;BME280;49472;49.880;8.650;2023-01-29T07:18:07;101374.66;;;8.21;nan
63347;BME280;49472;49.880;8.650;2023-01-29T07:20:40;101375.59;;;8.39;nan
63347;BME280;49472;49.880;8.650;2023-01-29T07:23:08;101381.75;;;8.55;nan
63347;BME280;49472;49.880;8.650;2023-01-29T07:25:34;101388.03;;;8.67;nan
63347;BME280;49472;49.880;8.650;2023-01-29T07:28:00;101392.59;;;8.79;nan
63347;BME280;49472;49.880;8.650;2023-01-29T07:30:26;101395.59;;;9.08;nan
63347;BME280;49472;49.880;8.650;2023-01-29T07:32:51;101405.72;;;8.51;nan
63347;BME280;49472;49.880;8.650;2023-01-29T07:35:17;101404.22;;;8.25;nan
63347;BME280;49472;49.880;8.650;2023-01-29T07:37:42;101398.47;;;7.99;nan
63347;BME280;49472;49.880;8.650;2023-01-29T07:40:08;101395.47;;;7.90;nan
63347;BME280;49472;49.880;8.650;2023-01-29T07:42:38;101391.81;;;8.17;nan
63347;BME280;49472;49.880;8.650;2023-01-29T07:45:05;101387.91;;;8.29;nan
63347;BME280;49472;49.880;8.650;2023-01-29T07:47:30;101391.75;;;7.76;nan
63347;BME280;49472;49.880;8.650;2023-01-29T07:49:56;101387.22;;;7.83;nan
63347;BME280;49472;49.880;8.650;2023-01-29T07:52:21;101387.84;;;8.10;nan
63347;BME280;49472;49.880;8.650;2023-01-29T07:54:46;101398.00;;;7.90;nan
63347;BME280;49472;49.880;8.650;2023-01-29T07:57:11;101395.13;;;8.19;nan
63347;BME280;49472;49.880;8.650;2023-01-29T07:59:37;101399.97;;;8.46;nan
63347;BME280;49472;49.880;8.650;2023-01-29T08:02:02;101395.16;;;8.18;nan
63347;BME280;49472;49.880;8.650;2023-01-29T08:04:28;101389.19;;;8.19;nan
63347;BME280;49472;49.880;8.650;2023-01-29T08:06:53;101383.69;;;8.69;nan
63347;BME280;49472;49.880;8.650;2023-01-29T08:09:19;101380.16;;;8.53;nan
63347;BME280;49472;49.880;8.650;2023-01-29T08:11:44;101373.47;;;8.50;nan
63347;BME280;49472;49.880;8.650;2023-01-29T08:14:09;101367.66;;;8.26;nan
63347;BME280;49472;49.880;8.650;2023-01-29T08:16:35;101371.56;;;7.28;nan
63347;BME280;49472;49.880;8.650;2023-01-29T08:19:01;101375.88;;;7.26;nan
63347;BME280;49472;49.880;8.650;2023-01-29T08:21:26;101395.50;;;7.22;nan
63347;BME280;49472;49.880;8.650;2023-01-29T08:23:52;101392.44;;;7.58;nan
63347;BME280;49472;49.880;8.650;2023-01-29T08:26:17;101399.34;;;7.56;nan
63347;BME280;49472;49.880;8.650;2023-01-29T08:28:43;101409.13;;;8.30;nan
63347;BME280;49472;49.880;8.650;2023-01-29T08:31:15;101409.19;;;8.28;nan
63347;BME280;49472;49.880;8.650;2023-01-29T08:33:42;101417.03;;;8.64;nan
63347;BME280;49472;49.880;8.650;2023-01-29T08:36:08;101406.34;;;8.56;nan
63347;BME280;49472;49.880;8.650;2023-01-29T08:38:33;101382.97;;;8.46;nan
63347;BME280;49472;49.880;8.650;2023-01-29T08:40:58;101371.44;;;8.17;nan
63347;BME280;49472;49.880;8.650;2023-01-29T08:43:24;101360.75;;;8.50;nan
63347;BME280;49472;49.880;8.650;2023-01-29T08:45:49;101357.59;;;8.43;nan
63347;BME280;49472;49.880;8.650;2023-01-29T08:48:14;101365.66;;;7.49;nan
63347;BME280;49472;49.880;8.650;2023-01-29T08:50:40;101373.97;;;7.53;nan
63347;BME280;49472;49.880;8.650;2023-01-29T08:53:07;101378.94;;;7.78;nan
63347;BME280;49472;49.880;8.650;2023-01-29T08:55:35;101391.00;;;7.95;nan
63347;BME280;49472;49.880;8.650;2023-01-29T08:58:09;101389.44;;;8.33;nan
63347;BME280;49472;49.880;8.650;2023-01-29T09:00:35;101389.56;;;8.30;nan
63347;BME280;49472;49.880;8.650;2023-01-29T09:03:01;101389.91;;;8.63;nan
63347;BME280;49472;49.880;8.650;2023-01-29T09:05:28;101374.78;;;8.98;nan
63347;BME280;49472;49.880;8.650;2023-01-29T09:07:55;101366.50;;;9.12;nan
63347;BME280;49472;49.880;8.650;2023-01-29T09:10:21;101376.81;;;8.90;nan
63347;BME280;49472;49.880;8.650;2023-01-29T09:12:47;101387.16;;;8.87;nan
63347;BME280;49472;49.880;8.650;2023-01-29T09:15:12;101378.22;;;9.16;nan
63347;BME280;49472;49.880;8.650;2023-01-29T09:17:37;101396.75;;;8.42;nan
63347;BME280;49472;49.880;8.650;2023-01-29T09:20:03;101405.44;;;8.57;nan
63347;BME280;49472;49.880;8.650;2023-01-29T09:22:31;101422.56;;;8.33;nan
63347;BME280;49472;49.880;8.650;2023-01-29T09:24:56;101426.91;;;9.11;nan
63347;BME280;49472;49.880;8.650;2023-01-29T09:27:21;101433.72;;;9.30;nan
63347;BME280;49472;49.880;8.650;2023-01-29T09:29:47;101429.66;;;9.45;nan
63347;BME280;49472;49.880;8.650;2023-01-29T09:32:12;101429.81;;;9.42;nan
63347;BME280;49472;49.880;8.650;2023-01-29T09:34:37;101423.72;;;9.25;nan
63347;BME280;49472;49.880;8.650;2023-01-29T09:37:03;101434.28;;;9.55;nan
63347;BME280;49472;49.880;8.650;2023-01-29T09:39:28;101441.38;;;9.49;nan
63347;BME280;49472;49.880;8.650;2023-01-29T09:45:02;101435.97;;;8.79;nan
63347;BME280;49472;49.880;8.650;2023-01-29T09:47:31;101436.63;;;9.60;nan
63347;BME280;49472;49.880;8.650;2023-01-29T09:50:02;101442.44;;;9.81;nan
63347;BME280;49472;49.880;8.650;2023-01-29T09:52:52;101441.06;;;9.74;nan
63347;BME280;49472;49.880;8.650;2023-01-29T09:55:25;101435.69;;;9.80;nan
63347;BME280;49472;49.880;8.650;2023-01-29T10:00:27;101430.19;;;8.55;nan
63347;BME280;49472;49.880;8.650;2023-01-29T10:03:06;101435.78;;;9.03;nan
63347;BME280;49472;49.880;8.650;2023-01-29T10:05:49;101428.34;;;8.98;nan
63347;BME280;49472;49.880;8.650;2023-01-29T10:08:40;101427.00;;;9.29;nan
63347;BME280;49472;49.880;8.650;2023-01-29T10:11:25;101425.19;;;9.12;nan
63347;BME280;49472;49.880;8.650;2023-01-29T10:17:09;101426.38;;;8.84;nan
63347;BME280;49472;49.880;8.650;2023-01-29T10:25:11;101400.91;;;8.64;nan
63347;BME280;49472;49.880;8.650;2023-01-29T10:27:39;101389.25;;;9.17;nan
63347;BME280;49472;49.880;8.650;2023-01-29T10:30:07;101391.09;;;9.32;nan
63347;BME280;49472;49.880;8.650;2023-01-29T10:32:36;101390.28;;;9.31;nan
63347;BME280;49472;49.880;8.650;2023-01-29T10:35:50;101386.00;;;8.75;nan
63347;BME280;49472;49.880;8.650;2023-01-29T10:37:53;101373.47;;;9.08;nan
63347;BME280;49472;49.880;8.650;2023-01-29T10:40:41;101370.34;;;9.40;nan
63347;BME280;49472;49.880;8.650;2023-01-29T10:43:23;101361.59;;;9.26;nan
63347;BME280;49472;49.880;8.650;2023-01-29T10:51:34;101352.50;;;8.83;nan
63347;BME280;49472;49.880;8.650;2023-01-29T11:02:01;101344.38;;;9.66;nan
63347;BME280;49472;49.880;8.650;2023-01-29T11:04:37;101336.28;;;10.10;nan
63347;BME280;49472;49.880;8.650;2023-01-29T11:07:03;101330.97;;;9.97;nan
63347;BME280;49472;49.880;8.650;2023-01-29T11:09:33;101319.59;;;9.68;nan
63347;BME280;49472;49.880;8.650;2023-01-29T11:14:57;101300.22;;;9.99;nan
63347;BME280;49472;49.880;8.650;2023-01-29T11:17:25;101302.13;;;10.46;nan
63347;BME280;49472;49.880;8.650;2023-01-29T11:19:52;101297.47;;;10.19;nan
63347;BME280;49472;49.880;8.650;2023-01-29T11:22:25;101297.34;;;10.88;nan
63347;BME280;49472;49.880;8.650;2023-01-29T11:27:42;101280.25;;;9.72;nan
63347;BME280;49472;49.880;8.650;2023-01-29T11:30:36;101274.59;;;10.67;nan
63347;BME280;49472;49.880;8.650;2023-01-29T11:33:20;101275.69;;;11.09;nan
63347;BME280;49472;49.880;8.650;2023-01-29T11:35:47;101271.50;;;11.08;nan
63347;BME280;49472;49.880;8.650;2023-01-29T11:38:17;101277.25;;;10.15;nan
63347;BME280;49472;49.880;8.650;2023-01-29T11:40:43;101274.00;;;10.78;nan
63347;BME280;49472;49.880;8.650;2023-01-29T11:43:15;101277.53;;;10.43;nan
63347;BME280;49472;49.880;8.650;2023-01-29T11:45:42;101274.59;;;10.00;nan
63347;BME280;49472;49.880;8.650;2023-01-29T11:48:17;101275.88;;;9.40;nan
63347;BME280;49472;49.880;8.650;2023-01-29T11:50:43;101267.66;;;8.98;nan
63347;BME280;49472;49.880;8.650;2023-01-29T11:53:35;101254.75;;;8.82;nan
63347;BME280;49472;49.880;8.650;2023-01-29T11:56:28;101253.31;;;9.49;nan
63347;BME280;49472;49.880;8.650;2023-01-29T11:58:55;101248.09;;;10.19;nan
63347;BME280;49472;49.880;8.650;2023-01-29T12:01:35;101251.16;;;10.59;nan
63347;BME280;49472;49.880;8.650;2023-01-29T12:04:18;101254.94;;;10.83;nan
63347;BME280;49472;49.880;8.650;2023-01-29T12:06:45;101253.19;;;10.68;nan
63347;BME280;49472;49.880;8.650;2023-01-29T12:09:18;101244.72;;;10.18;nan
63347;BME280;49472;49.880;8.650;2023-01-29T12:11:45;101247.34;;;9.49;nan
63347;BME280;49472;49.880;8.650;2023-01-29T12:14:32;101235.88;;;9.75;nan
63347;BME280;49472;49.880;8.650;2023-01-29T12:17:06;101240.53;;;9.32;nan
63347;BME280;49472;49.880;8.650;2023-01-29T12:20:11;101225.31;;;10.48;nan
63347;BME280;49472;49.880;8.650;2023-01-29T12:22:46;101224.78;;;10.89;nan
63347;BME280;49472;49.880;8.650;2023-01-29T12:25:40;101215.19;;;11.08;nan
63347;BME280;49472;49.880;8.650;2023-01-29T12:31:21;101196.78;;;14.17;nan
63347;BME280;49472;49.880;8.650;2023-01-29T12:36:31;101191.75;;;12.86;nan
63347;BME280;49472;49.880;8.650;2023-01-29T12:38:57;101192.97;;;13.20;nan
63347;BME280;49472;49.880;8.650;2023-01-29T12:41:38;101184.41;;;13.20;nan
63347;BME280;49472;49.880;8.650;2023-01-29T12:44:32;101176.84;;;12.10;nan
63347;BME280;49472;49.880;8.650;2023-01-29T12:47:04;101179.66;;;11.77;nan
63347;BME280;49472;49.880;8.650;2023-01-29T12:49:32;101175.00;;;11.83;nan
63347;BME280;49472;49.880;8.650;2023-01-29T12:58:04;101173.22;;;11.41;nan
63347;BME280;49472;49.880;8.650;2023-01-29T13:00:39;101173.59;;;12.35;nan
63347;BME280;49472;49.880;8.650;2023-01-29T13:03:19;101176.41;;;12.72;nan
63347;BME280;49472;49.880;8.650;2023-01-29T13:05:56;101164.16;;;12.63;nan
63347;BME280;49472;49.880;8.650;2023-01-29T13:08:40;101162.31;;;11.96;nan
63347;BME280;49472;49.880;8.650;2023-01-29T13:11:13;101158.19;;;10.90;nan
63347;BME280;49472;49.880;8.650;2023-01-29T13:13:47;101150.09;;;11.85;nan
63347;BME280;49472;49.880;8.650;2023-01-29T13:16:19;101148.19;;;11.74;nan
63347;BME280;49472;49.880;8.650;2023-01-29T13:19:05;101143.97;;;12.44;nan
63347;BME280;49472;49.880;8.650;2023-01-29T13:21:39;101140.34;;;12.33;nan
63347;BME280;49472;49.880;8.650;2023-01-29T13:24:12;101142.16;;;11.90;nan
63347;BME280;49472;49.880;8.650;2023-01-29T13:26:39;101133.63;;;12.72;nan
63347;BME280;49472;49.880;8.650;2023-01-29T13:29:05;101139.53;;;10.26;nan
63347;BME280;49472;49.880;8.650;2023-01-29T13:36:36;101123.44;;;10.72;nan
63347;BME280;49472;49.880;8.650;2023-01-29T13:39:07;101117.69;;;11.13;nan
63347;BME280;49472;49.880;8.650;2023-01-29T13:41:41;101115.56;;;10.29;nan
63347;BME280;49472;49.880;8.650;2023-01-29T13:44:22;101122.69;;;10.22;nan
63347;BME280;49472;49.880;8.650;2023-01-29T13:46:52;101115.56;;;11.19;nan
63347;BME280;49472;49.880;8.650;2023-01-29T13:51:53;101112.38;;;12.70;nan
63347;BME280;49472;49.880;8.650;2023-01-29T13:54:23;101106.47;;;14.57;nan
63347;BME280;49472;49.880;8.650;2023-01-29T13:56:57;101099.28;;;15.43;nan
63347;BME280;49472;49.880;8.650;2023-01-29T13:59:53;101109.41;;;12.89;nan
63347;BME280;49472;49.880;8.650;2023-01-29T14:02:24;101099.56;;;14.33;nan
63347;BME280;49472;49.880;8.650;2023-01-29T14:04:51;101099.16;;;13.15;nan
63347;BME280;49472;49.880;8.650;2023-01-29T14:10:15;101098.59;;;13.86;nan
63347;BME280;49472;49.880;8.650;2023-01-29T14:12:41;101096.88;;;12.97;nan
63347;BME280;49472;49.880;8.650;2023-01-29T14:15:22;101087.31;;;13.76;nan
63347;BME280;49472;49.880;8.650;2023-01-29T14:20:40;101084.09;;;13.49;nan
63347;BME280;49472;49.880;8.650;2023-01-29T14:25:45;101085.91;;;12.43;nan
63347;BME280;49472;49.880;8.650;2023-01-29T14:28:19;101080.81;;;12.55;nan
63347;BME280;49472;49.880;8.650;2023-01-29T14:30:47;101082.69;;;12.26;nan
63347;BME280;49472;49.880;8.650;2023-01-29T14:33:38;101081.41;;;11.92;nan
63347;BME280;49472;49.880;8.650;2023-01-29T14:36:10;101089.09;;;11.20;nan
63347;BME280;49472;49.880;8.650;2023-01-29T14:38:37;101080.75;;;11.17;nan
63347;BME280;49472;49.880;8.650;2023-01-29T14:41:25;101083.41;;;11.44;nan
63347;BME280;49472;49.880;8.650;2023-01-29T14:46:56;101099.84;;;9.71;nan
63347;BME280;49472;49.880;8.650;2023-01-29T14:49:53;101096.06;;;10.58;nan
63347;BME280;49472;49.880;8.650;2023-01-29T14:52:27;101091.22;;;10.53;nan
63347;BME280;49472;49.880;8.650;2023-01-29T14:54:58;101093.91;;;9.71;nan
63347;BME280;49472;49.880;8.650;2023-01-29T14:57:27;101085.78;;;9.80;nan
63347;BME280;49472;49.880;8.650;2023-01-29T15:00:03;101091.72;;;9.47;nan
63347;BME280;49472;49.880;8.650;2023-01-29T15:02:43;101082.41;;;10.73;nan
63347;BME280;49472;49.880;8.650;2023-01-29T15:05:19;101084.25;;;10.55;nan
63347;BME280;49472;49.880;8.650;2023-01-29T15:07:51;101075.47;;;10.13;nan
63347;BME280;49472;49.880;8.650;2023-01-29T15:12:55;101073.75;;;10.30;nan
63347;BME280;49472;49.880;8.650;2023-01-29T15:15:39;101071.59;;;10.06;nan
63347;BME280;49472;49.880;8.650;2023-01-29T15:18:36;101070.53;;;9.29;nan
63347;BME280;49472;49.880;8.650;2023-01-29T15:21:10;101067.78;;;8.82;nan
63347;BME280;49472;49.880;8.650;2023-01-29T15:23:36;101067.41;;;8.72;nan
63347;BME280;49472;49.880;8.650;2023-01-29T15:26:06;101059.34;;;9.32;nan
63347;BME280;49472;49.880;8.650;2023-01-29T15:28:34;101059.59;;;9.10;nan
63347;BME280;49472;49.880;8.650;2023-01-29T15:31:01;101059.00;;;8.53;nan
63347;BME280;49472;49.880;8.650;2023-01-29T15:33:28;101054.72;;;7.98;nan
63347;BME280;49472;49.880;8.650;2023-01-29T15:36:02;101052.78;;;8.58;nan
63347;BME280;49472;49.880;8.650;2023-01-29T15:38:29;101034.81;;;9.12;nan
63347;BME280;49472;49.880;8.650;2023-01-29T15:41:02;101044.97;;;8.44;nan
63347;BME280;49472;49.880;8.650;2023-01-29T15:43:36;101040.66;;;8.08;nan
63347;BME280;49472;49.880;8.650;2023-01-29T15:48:43;101040.78;;;8.43;nan
63347;BME280;49472;49.880;8.650;2023-01-29T15:51:14;101032.31;;;8.42;nan
63347;BME280;49472;49.880;8.650;2023-01-29T15:53:45;101029.81;;;8.41;nan